Time;durP1;ratioP1;P1;durP2;ratioP2;P2;SDS_P1;SDS_P2;PMS_P1;PMS_P2;Temp;Humidity;BMP_temperature;BMP_pressure;BME280_temperature;BME280_humidity;BME280_pressure;Samples;Min_cycle;Max_cycle;Signal;HPM_P1;HPM_P2
2024/05/07 00:00:09;;;;;;;3.20;2.00;;;;;;;;;;5385153;26;20020;-83
2024/05/07 00:02:36;;;;;;;1.58;1.40;;;;;;;;;;5383435;26;19996;-82
2024/05/07 00:05:02;;;;;;;2.95;2.00;;;;;;;;;;5383268;26;20008;-81
2024/05/07 00:07:28;;;;;;;6.05;2.00;;;;;;;;;;5386218;26;19988;-81
2024/05/07 00:09:57;;;;;;;3.85;2.15;;;;;;;;;;5383839;26;20000;-79
2024/05/07 00:12:23;;;;;;;2.45;1.70;;;;;;;;;;5378910;26;19992;-81
2024/05/07 00:14:49;;;;;;;2.88;1.90;;;;;;;;;;5349474;26;20008;-80
2024/05/07 00:17:15;;;;;;;3.50;1.75;;;;;;;;;;5351063;26;20001;-82
2024/05/07 00:19:41;;;;;;;2.38;1.80;;;;;;;;;;5350097;26;20044;-81
2024/05/07 00:22:07;;;;;;;4.30;2.00;;;;;;;;;;5348308;26;20033;-81
2024/05/07 00:24:33;;;;;;;3.13;1.58;;;;;;;;;;5347919;26;20000;-82
2024/05/07 00:26:59;;;;;;;2.25;1.58;;;;;;;;;;5376588;26;20000;-81
2024/05/07 00:29:25;;;;;;;3.03;2.00;;;;;;;;;;5382337;26;20012;-80
2024/05/07 00:31:51;;;;;;;2.70;1.80;;;;;;;;;;5384572;26;20006;-81
2024/05/07 00:34:17;;;;;;;2.35;1.88;;;;;;;;;;5384362;26;20004;-82
2024/05/07 00:36:44;;;;;;;3.65;2.00;;;;;;;;;;5384112;26;20467;-81
2024/05/07 00:39:10;;;;;;;3.22;2.00;;;;;;;;;;5384004;26;20007;-82
2024/05/07 00:41:36;;;;;;;4.78;1.67;;;;;;;;;;5382081;26;20464;-81
2024/05/07 00:44:02;;;;;;;5.32;2.38;;;;;;;;;;5374161;26;20007;-81
2024/05/07 00:46:28;;;;;;;2.97;2.08;;;;;;;;;;5366554;26;20016;-81
2024/05/07 00:48:55;;;;;;;4.75;2.17;;;;;;;;;;5384195;26;20000;-82
2024/05/07 00:51:21;;;;;;;3.03;1.85;;;;;;;;;;5382472;26;19997;-81
2024/05/07 00:53:47;;;;;;;3.42;2.40;;;;;;;;;;5382086;26;19998;-82
2024/05/07 00:56:13;;;;;;;2.50;2.20;;;;;;;;;;5369406;26;19993;-81
2024/05/07 00:58:39;;;;;;;2.55;1.70;;;;;;;;;;5349125;26;20009;-81
2024/05/07 01:01:06;;;;;;;2.10;1.70;;;;;;;;;;5347089;26;19996;-83
2024/05/07 01:03:32;;;;;;;6.28;1.90;;;;;;;;;;5348708;26;19997;-82
2024/05/07 01:05:58;;;;;;;2.83;1.92;;;;;;;;;;5349317;26;20004;-81
2024/05/07 01:08:24;;;;;;;4.22;1.90;;;;;;;;;;5376386;26;20016;-82
2024/05/07 01:10:51;;;;;;;3.88;2.05;;;;;;;;;;5383712;26;20003;-82
2024/05/07 01:13:23;;;;;;;3.88;2.00;;;;;;;;;;5382688;26;20004;-82
2024/05/07 01:15:49;;;;;;;3.13;2.20;;;;;;;;;;5383254;26;20143;-81
2024/05/07 01:18:16;;;;;;;3.53;2.13;;;;;;;;;;5355295;26;20045;-82
2024/05/07 01:20:42;;;;;;;4.05;1.95;;;;;;;;;;5348519;26;20001;-82
2024/05/07 01:23:08;;;;;;;4.05;1.83;;;;;;;;;;5348792;26;19997;-81
2024/05/07 01:25:35;;;;;;;3.47;2.28;;;;;;;;;;5353049;26;19996;-77
2024/05/07 01:28:01;;;;;;;3.05;2.30;;;;;;;;;;5381625;26;20000;-83
2024/05/07 01:30:28;;;;;;;3.03;1.95;;;;;;;;;;5381915;26;19992;-81
2024/05/07 01:32:54;;;;;;;2.70;1.95;;;;;;;;;;5382270;26;20007;-81
2024/05/07 01:35:20;;;;;;;8.68;2.20;;;;;;;;;;5381546;26;19996;-80
2024/05/07 01:37:46;;;;;;;5.45;2.05;;;;;;;;;;5361007;26;20044;-83
2024/05/07 01:40:12;;;;;;;4.40;1.92;;;;;;;;;;5362135;26;20449;-82
2024/05/07 01:42:39;;;;;;;3.75;1.83;;;;;;;;;;5383051;26;20003;-81
2024/05/07 01:45:05;;;;;;;3.05;2.00;;;;;;;;;;5382796;26;20082;-81
2024/05/07 01:47:31;;;;;;;3.50;2.30;;;;;;;;;;5382739;26;20460;-81
2024/05/07 01:49:57;;;;;;;4.15;2.20;;;;;;;;;;5381992;26;19993;-81
2024/05/07 01:52:23;;;;;;;3.80;2.13;;;;;;;;;;5383131;26;20362;-80
2024/05/07 01:54:50;;;;;;;7.47;1.88;;;;;;;;;;5382490;26;19996;-79
2024/05/07 01:57:16;;;;;;;4.68;2.53;;;;;;;;;;5380559;26;20000;-80
2024/05/07 01:59:42;;;;;;;4.88;2.10;;;;;;;;;;5381281;26;20345;-80
2024/05/07 02:02:08;;;;;;;3.25;2.10;;;;;;;;;;5383251;26;20455;-81
2024/05/07 02:04:34;;;;;;;2.53;1.92;;;;;;;;;;5381363;26;20070;-81
2024/05/07 02:07:01;;;;;;;3.63;2.22;;;;;;;;;;5379233;26;20095;-81
2024/05/07 02:09:28;;;;;;;2.60;2.28;;;;;;;;;;5347884;26;20007;-80
2024/05/07 02:11:54;;;;;;;5.47;2.78;;;;;;;;;;5346341;26;20380;-80
2024/05/07 02:14:20;;;;;;;3.38;2.30;;;;;;;;;;5346338;26;20021;-80
2024/05/07 02:16:50;;;;;;;5.20;2.30;;;;;;;;;;5373358;26;20015;-82
2024/05/07 02:19:19;;;;;;;2.88;2.22;;;;;;;;;;5380998;26;20008;-82
2024/05/07 02:21:46;;;;;;;3.88;2.10;;;;;;;;;;5382617;26;19993;-81
2024/05/07 02:24:12;;;;;;;5.40;2.22;;;;;;;;;;5381713;26;20463;-80
2024/05/07 02:26:39;;;;;;;2.95;2.22;;;;;;;;;;5380464;26;20004;-81
2024/05/07 02:29:05;;;;;;;3.45;2.50;;;;;;;;;;5345515;26;20001;-79
2024/05/07 02:31:31;;;;;;;4.10;2.33;;;;;;;;;;5347397;26;20028;-83
2024/05/07 02:33:58;;;;;;;4.20;2.40;;;;;;;;;;5347774;26;20001;-80
2024/05/07 02:36:24;;;;;;;4.53;2.20;;;;;;;;;;5353380;26;19993;-80
2024/05/07 02:38:50;;;;;;;3.92;2.42;;;;;;;;;;5347632;26;20013;-79
2024/05/07 02:41:16;;;;;;;4.30;2.20;;;;;;;;;;5347518;26;20427;-81
2024/05/07 02:43:42;;;;;;;4.03;2.38;;;;;;;;;;5375540;26;20004;-83
2024/05/07 02:46:11;;;;;;;5.95;3.03;;;;;;;;;;5382157;26;20000;-80
2024/05/07 02:48:37;;;;;;;2.58;1.88;;;;;;;;;;5351123;26;20009;-81
2024/05/07 02:51:06;;;;;;;9.52;2.80;;;;;;;;;;5345675;26;20074;-80
2024/05/07 02:53:32;;;;;;;5.50;2.42;;;;;;;;;;5345874;26;19993;-81
2024/05/07 02:55:58;;;;;;;4.60;2.22;;;;;;;;;;5347662;26;20055;-81
2024/05/07 02:58:24;;;;;;;3.08;2.15;;;;;;;;;;5347447;26;20001;-82
2024/05/07 03:00:50;;;;;;;4.82;2.00;;;;;;;;;;5348672;26;20074;-81
2024/05/07 03:03:19;;;;;;;3.83;2.20;;;;;;;;;;5357260;26;20011;-81
2024/05/07 03:05:45;;;;;;;5.05;2.40;;;;;;;;;;5383510;26;20000;-80
2024/05/07 03:08:11;;;;;;;3.30;2.28;;;;;;;;;;5360109;26;20071;-82
2024/05/07 03:10:37;;;;;;;4.20;1.95;;;;;;;;;;5345319;26;20512;-82
2024/05/07 03:13:04;;;;;;;2.83;2.13;;;;;;;;;;5345600;26;20016;-83
2024/05/07 03:15:30;;;;;;;5.13;2.40;;;;;;;;;;5345621;26;20077;-82
2024/05/07 03:17:56;;;;;;;3.58;2.22;;;;;;;;;;5347275;26;20048;-82
2024/05/07 03:20:22;;;;;;;3.58;2.50;;;;;;;;;;5346849;26;19997;-80
2024/05/07 03:22:51;;;;;;;3.97;2.50;;;;;;;;;;5345056;26;20008;-80
2024/05/07 03:25:24;;;;;;;3.72;2.10;;;;;;;;;;5346616;26;20442;-81
2024/05/07 03:27:50;;;;;;;5.05;2.40;;;;;;;;;;5346945;26;19993;-81
2024/05/07 03:30:16;;;;;;;3.28;1.92;;;;;;;;;;5347031;26;20000;-81
2024/05/07 03:32:42;;;;;;;7.20;2.22;;;;;;;;;;5379132;26;20441;-81
2024/05/07 03:35:08;;;;;;;2.95;1.60;;;;;;;;;;5383287;26;20001;-83
2024/05/07 03:37:35;;;;;;;2.00;1.80;;;;;;;;;;5360085;26;20004;-80
2024/05/07 03:40:01;;;;;;;3.17;2.22;;;;;;;;;;5350354;26;20003;-82
2024/05/07 03:42:27;;;;;;;3.35;2.53;;;;;;;;;;5350260;26;20506;-80
2024/05/07 03:44:53;;;;;;;6.10;2.20;;;;;;;;;;5352800;26;20004;-81
2024/05/07 03:47:19;;;;;;;2.53;1.90;;;;;;;;;;5383232;26;20015;-83
2024/05/07 03:49:45;;;;;;;3.35;2.40;;;;;;;;;;5385413;26;20000;-81
2024/05/07 03:52:11;;;;;;;2.22;1.92;;;;;;;;;;5385420;26;19997;-82
2024/05/07 03:54:37;;;;;;;4.97;2.30;;;;;;;;;;5383473;26;20172;-84
2024/05/07 03:57:03;;;;;;;6.05;2.35;;;;;;;;;;5382948;26;20004;-80
2024/05/07 03:59:29;;;;;;;3.67;2.30;;;;;;;;;;5382353;26;20007;-81
2024/05/07 04:01:55;;;;;;;3.95;2.20;;;;;;;;;;5384247;26;20070;-82
2024/05/07 04:04:21;;;;;;;8.52;2.42;;;;;;;;;;5384551;26;20004;-81
2024/05/07 04:06:47;;;;;;;3.70;2.30;;;;;;;;;;5384280;26;20004;-84
2024/05/07 04:09:13;;;;;;;5.00;2.40;;;;;;;;;;5360895;26;20001;-81
2024/05/07 04:11:44;;;;;;;3.15;2.35;;;;;;;;;;5352026;26;20033;-81
2024/05/07 04:14:13;;;;;;;4.00;2.70;;;;;;;;;;5321648;26;20017;-82
2024/05/07 04:16:39;;;;;;;3.63;2.47;;;;;;;;;;5351594;26;20090;-79
2024/05/07 04:19:08;;;;;;;4.38;2.67;;;;;;;;;;5352293;26;20382;-80
2024/05/07 04:21:34;;;;;;;4.10;2.50;;;;;;;;;;5351176;26;20009;-81
2024/05/07 04:24:00;;;;;;;3.22;2.50;;;;;;;;;;5349634;26;20358;-83
2024/05/07 04:26:26;;;;;;;9.07;2.75;;;;;;;;;;5370242;26;20545;-84
2024/05/07 04:28:52;;;;;;;5.28;2.30;;;;;;;;;;5384543;26;20011;-81
2024/05/07 04:31:18;;;;;;;6.85;2.47;;;;;;;;;;5383800;26;20452;-83
2024/05/07 04:33:46;;;;;;;5.18;2.75;;;;;;;;;;5386764;26;20008;-82
2024/05/07 04:36:12;;;;;;;10.15;3.40;;;;;;;;;;5380863;26;19989;-85
2024/05/07 04:38:38;;;;;;;10.07;9.05;;;;;;;;;;5351466;26;20004;-82
2024/05/07 04:41:04;;;;;;;4.95;2.60;;;;;;;;;;5380987;26;19998;-82
2024/05/07 04:43:30;;;;;;;4.50;2.40;;;;;;;;;;5384707;26;20453;-82
2024/05/07 04:45:57;;;;;;;3.83;2.60;;;;;;;;;;5384607;26;19992;-81
2024/05/07 04:48:23;;;;;;;3.63;2.58;;;;;;;;;;5383031;26;20083;-83
2024/05/07 04:50:49;;;;;;;5.60;2.53;;;;;;;;;;5382251;26;20098;-84
2024/05/07 04:53:16;;;;;;;3.70;2.40;;;;;;;;;;5364629;26;20000;-83
2024/05/07 04:55:43;;;;;;;4.00;2.58;;;;;;;;;;5352197;26;20001;-83
2024/05/07 04:58:10;;;;;;;3.85;2.75;;;;;;;;;;5349011;26;19997;-83
2024/05/07 05:00:36;;;;;;;2.95;2.58;;;;;;;;;;5371030;26;20011;-82
2024/05/07 05:03:03;;;;;;;4.75;2.45;;;;;;;;;;5384339;26;20016;-82
2024/05/07 05:05:29;;;;;;;3.10;2.50;;;;;;;;;;5384531;26;20003;-84
2024/05/07 05:07:55;;;;;;;7.30;2.88;;;;;;;;;;5381278;26;20004;-84
2024/05/07 05:10:25;;;;;;;9.23;2.97;;;;;;;;;;5385600;26;20004;-83
2024/05/07 05:12:51;;;;;;;3.65;2.30;;;;;;;;;;5357416;26;20099;-80
2024/05/07 05:15:17;;;;;;;5.80;2.40;;;;;;;;;;5351449;26;20004;-85
2024/05/07 05:17:44;;;;;;;4.22;2.67;;;;;;;;;;5349847;26;20008;-83
2024/05/07 05:20:11;;;;;;;4.60;2.70;;;;;;;;;;5372620;26;20050;-83
2024/05/07 05:22:37;;;;;;;6.03;2.85;;;;;;;;;;5380333;26;20000;-84
2024/05/07 05:25:03;;;;;;;4.22;2.63;;;;;;;;;;5385839;26;20000;-83
2024/05/07 05:27:29;;;;;;;3.58;2.65;;;;;;;;;;5370041;26;19997;-80
2024/05/07 05:29:55;;;;;;;10.68;2.42;;;;;;;;;;5348781;26;20009;-85
2024/05/07 05:32:21;;;;;;;4.32;2.50;;;;;;;;;;5351649;26;19996;-83
2024/05/07 05:34:48;;;;;;;4.32;2.97;;;;;;;;;;5352743;26;20005;-85
2024/05/07 05:37:14;;;;;;;3.08;2.22;;;;;;;;;;5358248;26;20012;-85
2024/05/07 05:39:40;;;;;;;3.08;2.55;;;;;;;;;;5350031;26;20005;-84
2024/05/07 05:42:06;;;;;;;5.10;2.45;;;;;;;;;;5348299;26;20464;-83
2024/05/07 05:44:32;;;;;;;4.20;2.80;;;;;;;;;;5348197;26;20036;-82
2024/05/07 05:46:58;;;;;;;4.05;2.60;;;;;;;;;;5353227;26;20004;-84
2024/05/07 05:49:24;;;;;;;5.43;2.72;;;;;;;;;;5383396;26;20000;-85
2024/05/07 05:51:50;;;;;;;4.80;2.50;;;;;;;;;;5386029;26;20409;-83
2024/05/07 05:54:16;;;;;;;4.35;2.60;;;;;;;;;;5384116;26;20000;-84
2024/05/07 05:56:42;;;;;;;2.55;2.30;;;;;;;;;;5351467;26;20012;-83
2024/05/07 05:59:08;;;;;;;3.28;2.45;;;;;;;;;;5353846;26;20041;-83
2024/05/07 06:01:34;;;;;;;5.30;2.40;;;;;;;;;;5351234;26;20004;-85
2024/05/07 06:04:00;;;;;;;3.55;2.50;;;;;;;;;;5351501;26;20000;-84
2024/05/07 06:06:27;;;;;;;3.65;2.60;;;;;;;;;;5351881;26;19997;-85
2024/05/07 06:08:53;;;;;;;3.78;2.55;;;;;;;;;;5366024;26;20004;-83
2024/05/07 06:11:19;;;;;;;4.40;2.65;;;;;;;;;;5386687;26;20017;-85
2024/05/07 06:13:45;;;;;;;5.90;2.47;;;;;;;;;;5386667;26;20073;-82
2024/05/07 06:16:11;;;;;;;18.92;3.00;;;;;;;;;;5383179;26;20421;-83
2024/05/07 06:18:37;;;;;;;3.88;2.38;;;;;;;;;;5371251;26;20086;-83
2024/05/07 06:21:03;;;;;;;5.28;2.92;;;;;;;;;;5351139;26;20008;-84
2024/05/07 06:23:29;;;;;;;7.18;2.92;;;;;;;;;;5349965;26;20001;-84
2024/05/07 06:25:56;;;;;;;3.90;2.80;;;;;;;;;;5349023;26;20005;-82
2024/05/07 06:28:22;;;;;;;3.65;2.88;;;;;;;;;;5360128;26;19996;-86
2024/05/07 06:30:48;;;;;;;4.63;2.63;;;;;;;;;;5375079;26;20005;-85
2024/05/07 06:33:14;;;;;;;4.10;2.63;;;;;;;;;;5351028;26;19997;-85
2024/05/07 06:35:41;;;;;;;4.30;2.70;;;;;;;;;;5349734;26;20009;-85
2024/05/07 06:38:08;;;;;;;3.97;2.90;;;;;;;;;;5383468;26;20000;-83
2024/05/07 06:40:35;;;;;;;5.78;2.85;;;;;;;;;;5387694;26;20052;-84
2024/05/07 06:43:02;;;;;;;4.10;2.53;;;;;;;;;;5387993;26;19997;-85
2024/05/07 06:45:29;;;;;;;4.35;2.47;;;;;;;;;;5385060;26;19996;-84
2024/05/07 06:47:55;;;;;;;7.60;2.67;;;;;;;;;;5385369;26;20004;-83
2024/05/07 06:50:21;;;;;;;5.00;2.60;;;;;;;;;;5388842;26;20059;-86
2024/05/07 06:52:47;;;;;;;3.80;2.72;;;;;;;;;;5364994;26;19993;-84
2024/05/07 06:55:13;;;;;;;3.67;2.63;;;;;;;;;;5394102;26;20004;-85
2024/05/07 06:57:39;;;;;;;6.50;3.00;;;;;;;;;;5385082;26;19996;-82
2024/05/07 07:00:06;;;;;;;4.82;2.50;;;;;;;;;;5355158;26;20001;-83
2024/05/07 07:02:32;;;;;;;5.72;2.63;;;;;;;;;;5387688;26;20011;-85
2024/05/07 07:04:58;;;;;;;5.00;2.80;;;;;;;;;;5386948;26;20000;-82
2024/05/07 07:07:29;;;;;;;3.90;2.60;;;;;;;;;;5385647;26;19996;-85
2024/05/07 07:09:55;;;;;;;5.88;2.47;;;;;;;;;;5384860;26;20000;-85
2024/05/07 07:12:21;;;;;;;6.70;3.00;;;;;;;;;;5352229;26;20001;-83
2024/05/07 07:14:49;;;;;;;4.63;2.50;;;;;;;;;;5346917;26;19997;-83
2024/05/07 07:17:15;;;;;;;3.97;2.63;;;;;;;;;;5345743;26;20001;-82
2024/05/07 07:19:41;;;;;;;3.10;2.38;;;;;;;;;;5352408;26;20001;-82
2024/05/07 07:22:08;;;;;;;3.50;2.30;;;;;;;;;;5380480;26;20069;-81
2024/05/07 07:24:34;;;;;;;5.22;2.30;;;;;;;;;;5372526;26;20033;-82
2024/05/07 07:27:00;;;;;;;4.72;2.38;;;;;;;;;;5362577;26;20025;-82
2024/05/07 07:29:26;;;;;;;9.02;2.38;;;;;;;;;;5370220;26;20016;-82
2024/05/07 07:31:53;;;;;;;3.83;2.20;;;;;;;;;;5381723;26;19996;-82
2024/05/07 07:34:19;;;;;;;4.88;2.25;;;;;;;;;;5371393;26;20070;-82
2024/05/07 07:36:48;;;;;;;3.45;2.67;;;;;;;;;;5369113;26;20108;-83
2024/05/07 07:39:17;;;;;;;4.38;2.88;;;;;;;;;;5373306;26;20003;-83
2024/05/07 07:41:43;;;;;;;3.75;2.15;;;;;;;;;;5380920;26;20012;-81
2024/05/07 07:44:09;;;;;;;2.90;2.30;;;;;;;;;;5381622;26;20399;-81
2024/05/07 07:46:35;;;;;;;2.10;1.83;;;;;;;;;;5381063;26;20329;-82
2024/05/07 07:49:02;;;;;;;2.55;1.98;;;;;;;;;;5380661;26;19997;-82
2024/05/07 07:51:28;;;;;;;7.63;2.50;;;;;;;;;;5368076;26;20000;-83
2024/05/07 07:53:54;;;;;;;3.63;2.45;;;;;;;;;;5379071;26;20095;-83
2024/05/07 07:56:20;;;;;;;3.63;1.85;;;;;;;;;;5382507;26;20416;-81
2024/05/07 07:58:46;;;;;;;6.38;2.25;;;;;;;;;;5380278;26;20036;-83
2024/05/07 08:01:12;;;;;;;2.45;2.10;;;;;;;;;;5379658;26;20000;-81
2024/05/07 08:03:38;;;;;;;4.40;2.05;;;;;;;;;;5380061;26;20001;-82
2024/05/07 08:06:05;;;;;;;4.15;2.08;;;;;;;;;;5382428;26;20087;-82
2024/05/07 08:08:31;;;;;;;6.57;2.15;;;;;;;;;;5382876;26;20077;-80
2024/05/07 08:10:57;;;;;;;5.57;2.10;;;;;;;;;;5385829;26;20003;-84
2024/05/07 08:13:23;;;;;;;3.75;2.20;;;;;;;;;;5385149;26;20000;-85
2024/05/07 08:15:49;;;;;;;3.78;2.20;;;;;;;;;;5371922;26;20001;-85
2024/05/07 08:18:16;;;;;;;3.97;2.47;;;;;;;;;;5351529;26;20009;-85
2024/05/07 08:20:45;;;;;;;6.07;2.33;;;;;;;;;;5372449;26;20062;-82
2024/05/07 08:23:14;;;;;;;4.75;2.55;;;;;;;;;;5379788;26;20000;-85
2024/05/07 08:25:40;;;;;;;5.63;1.75;;;;;;;;;;5370361;26;20011;-84
2024/05/07 08:28:06;;;;;;;4.38;1.38;;;;;;;;;;5349464;26;20028;-85
2024/05/07 08:30:32;;;;;;;2.53;1.50;;;;;;;;;;5371566;26;20001;-84
2024/05/07 08:32:58;;;;;;;3.28;0.85;;;;;;;;;;5379176;26;20011;-83
2024/05/07 08:35:24;;;;;;;5.22;2.28;;;;;;;;;;5386309;26;20016;-83
2024/05/07 08:37:51;;;;;;;4.65;2.00;;;;;;;;;;5384880;26;20402;-84
2024/05/07 08:40:17;;;;;;;2.80;1.85;;;;;;;;;;5385062;26;20012;-85
2024/05/07 08:42:49;;;;;;;3.25;2.10;;;;;;;;;;5384557;26;20081;-83
2024/05/07 08:45:17;;;;;;;4.15;2.30;;;;;;;;;;5358217;26;20074;-82
2024/05/07 08:47:45;;;;;;;4.82;2.38;;;;;;;;;;5384203;26;20031;-83
2024/05/07 08:50:11;;;;;;;9.68;2.67;;;;;;;;;;5381266;26;20004;-82
2024/05/07 08:52:41;;;;;;;3.35;2.33;;;;;;;;;;5384388;26;20015;-84
2024/05/07 08:55:09;;;;;;;2.53;1.95;;;;;;;;;;5374753;26;20000;-83
2024/05/07 08:57:35;;;;;;;2.40;2.20;;;;;;;;;;5371172;26;20014;-83
2024/05/07 09:00:01;;;;;;;5.43;1.90;;;;;;;;;;5362670;26;20004;-84
2024/05/07 09:02:27;;;;;;;7.32;2.00;;;;;;;;;;5378155;26;20001;-83
2024/05/07 09:04:53;;;;;;;3.72;2.10;;;;;;;;;;5359076;26;20010;-80
2024/05/07 09:07:29;;;;;;;2.35;1.90;;;;;;;;;;5374894;26;20465;-78
2024/05/07 09:09:55;;;;;;;3.25;2.22;;;;;;;;;;5385024;26;20004;-82
2024/05/07 09:12:21;;;;;;;2.90;2.30;;;;;;;;;;5385912;26;20012;-79
2024/05/07 09:14:50;;;;;;;6.40;2.30;;;;;;;;;;5364724;26;20013;-84
2024/05/07 09:17:17;;;;;;;3.80;2.20;;;;;;;;;;5374094;26;20029;-82
2024/05/07 09:19:43;;;;;;;7.25;2.38;;;;;;;;;;5385098;26;20001;-82
2024/05/07 09:22:17;;;;;;;4.43;2.40;;;;;;;;;;5325986;26;20011;-84
2024/05/07 09:24:53;;;;;;;5.05;2.33;;;;;;;;;;5349869;26;20104;-82
2024/05/07 09:27:19;;;;;;;3.42;2.20;;;;;;;;;;5366473;26;20000;-77
2024/05/07 09:29:45;;;;;;;3.45;1.67;;;;;;;;;;5376376;26;20001;-81
2024/05/07 09:32:13;;;;;;;3.67;2.60;;;;;;;;;;5370547;26;20000;-83
2024/05/07 09:34:41;;;;;;;2.83;1.90;;;;;;;;;;5369341;26;20012;-81
2024/05/07 09:37:10;;;;;;;5.75;2.45;;;;;;;;;;5373980;26;20008;-81
2024/05/07 09:39:44;;;;;;;3.17;2.00;;;;;;;;;;5376413;26;20000;-82
2024/05/07 09:42:13;;;;;;;3.00;1.80;;;;;;;;;;5360897;26;19997;-81
2024/05/07 09:44:46;;;;;;;2.40;1.70;;;;;;;;;;5375140;26;20008;-82
2024/05/07 09:47:12;;;;;;;3.47;2.40;;;;;;;;;;5381984;26;20000;-81
2024/05/07 09:49:40;;;;;;;5.05;2.38;;;;;;;;;;5370735;26;19996;-81
2024/05/07 09:52:06;;;;;;;3.65;2.30;;;;;;;;;;5366449;26;20079;-82
2024/05/07 09:54:32;;;;;;;5.30;2.45;;;;;;;;;;5374860;26;20004;-79
2024/05/07 09:57:01;;;;;;;7.55;2.72;;;;;;;;;;5382277;26;20053;-82
2024/05/07 09:59:31;;;;;;;3.60;2.33;;;;;;;;;;5370040;26;20008;-83
2024/05/07 10:01:57;;;;;;;3.00;2.22;;;;;;;;;;5387601;26;20007;-84
2024/05/07 10:04:23;;;;;;;5.85;2.60;;;;;;;;;;5374764;26;20024;-87
2024/05/07 10:06:55;;;;;;;3.88;2.35;;;;;;;;;;5395912;26;20000;-88
2024/05/07 10:09:22;;;;;;;7.00;2.47;;;;;;;;;;5377718;26;20000;-89
2024/05/07 10:11:50;;;;;;;5.88;2.50;;;;;;;;;;5391920;26;20000;-86
2024/05/07 10:14:16;;;;;;;4.78;2.30;;;;;;;;;;5384349;26;20054;-86
2024/05/07 10:16:45;;;;;;;4.85;2.10;;;;;;;;;;5376496;26;20045;-87
2024/05/07 10:19:12;;;;;;;3.90;1.98;;;;;;;;;;5374568;26;20032;-81
2024/05/07 10:21:38;;;;;;;2.95;1.92;;;;;;;;;;5376457;26;20005;-86
2024/05/07 10:24:11;;;;;;;4.25;2.00;;;;;;;;;;5374333;26;19992;-82
2024/05/07 10:26:38;;;;;;;6.20;1.98;;;;;;;;;;5373448;26;19996;-86
2024/05/07 10:29:04;;;;;;;2.63;2.00;;;;;;;;;;5400640;26;20075;-86
2024/05/07 10:31:30;;;;;;;2.33;1.90;;;;;;;;;;5366590;26;20019;-80
2024/05/07 10:33:59;;;;;;;3.92;1.85;;;;;;;;;;5369807;26;20000;-79
2024/05/07 10:36:31;;;;;;;3.25;1.75;;;;;;;;;;5367713;26;19996;-82
2024/05/07 10:38:57;;;;;;;5.20;1.95;;;;;;;;;;5351087;26;19997;-80
2024/05/07 10:41:23;;;;;;;2.45;1.75;;;;;;;;;;5350641;26;20016;-85
2024/05/07 10:43:50;;;;;;;7.03;1.80;;;;;;;;;;5386017;26;20043;-87
2024/05/07 10:46:20;;;;;;;2.28;1.80;;;;;;;;;;5391206;26;20047;-87
2024/05/07 10:48:46;;;;;;;2.15;1.88;;;;;;;;;;5388227;26;20000;-86
2024/05/07 10:51:12;;;;;;;3.83;2.10;;;;;;;;;;5386669;26;19996;-81
2024/05/07 10:53:39;;;;;;;3.80;1.88;;;;;;;;;;5377978;26;19993;-79
2024/05/07 10:56:06;;;;;;;2.30;1.92;;;;;;;;;;5386607;26;20004;-82
2024/05/07 10:58:32;;;;;;;2.88;1.98;;;;;;;;;;5381179;26;19996;-83
2024/05/07 11:00:59;;;;;;;3.60;2.00;;;;;;;;;;5383395;26;20025;-80
2024/05/07 11:03:25;;;;;;;2.45;2.10;;;;;;;;;;5366975;26;20004;-80
2024/05/07 11:05:51;;;;;;;2.90;2.40;;;;;;;;;;5369349;26;20009;-77
2024/05/07 11:08:20;;;;;;;11.23;2.33;;;;;;;;;;5362987;26;19996;-79
2024/05/07 11:10:46;;;;;;;2.22;1.83;;;;;;;;;;5370722;26;20008;-86
2024/05/07 11:13:12;;;;;;;4.65;2.20;;;;;;;;;;5376600;26;20075;-85
2024/05/07 11:15:38;;;;;;;5.60;2.35;;;;;;;;;;5363520;26;20012;-78
2024/05/07 11:18:05;;;;;;;5.40;1.90;;;;;;;;;;5377024;26;20490;-79
2024/05/07 11:20:32;;;;;;;2.33;1.50;;;;;;;;;;5374379;26;20004;-81
2024/05/07 11:22:58;;;;;;;2.00;1.30;;;;;;;;;;5372664;26;20012;-83
2024/05/07 11:25:27;;;;;;;7.60;2.03;;;;;;;;;;5373820;26;20005;-82
2024/05/07 11:27:53;;;;;;;2.58;1.65;;;;;;;;;;5381403;26;19996;-81
2024/05/07 11:30:19;;;;;;;3.78;1.80;;;;;;;;;;5361031;26;20008;-83
2024/05/07 11:32:45;;;;;;;7.45;1.70;;;;;;;;;;5384888;26;20000;-87
2024/05/07 11:35:11;;;;;;;3.45;1.90;;;;;;;;;;5376637;26;20011;-90
2024/05/07 11:37:38;;;;;;;2.50;1.90;;;;;;;;;;5385373;26;19997;-89
2024/05/07 11:40:04;;;;;;;2.03;1.80;;;;;;;;;;5391464;26;20011;-91
2024/05/07 11:42:31;;;;;;;3.38;2.35;;;;;;;;;;5389018;26;20032;-87
2024/05/07 11:44:57;;;;;;;3.08;1.85;;;;;;;;;;5383964;26;20100;-87
2024/05/07 11:47:23;;;;;;;2.63;1.65;;;;;;;;;;5373408;26;20490;-87
2024/05/07 11:49:49;;;;;;;2.03;1.55;;;;;;;;;;5383274;26;20008;-88
2024/05/07 11:52:15;;;;;;;4.78;1.70;;;;;;;;;;5364363;26;20015;-86
2024/05/07 11:54:41;;;;;;;3.00;1.73;;;;;;;;;;5382399;26;20028;-86
2024/05/07 11:57:08;;;;;;;3.65;1.70;;;;;;;;;;5390090;26;19996;-89
2024/05/07 11:59:34;;;;;;;7.10;1.73;;;;;;;;;;5360851;26;20001;-86
2024/05/07 12:02:01;;;;;;;3.40;1.70;;;;;;;;;;5357254;26;20005;-86
2024/05/07 12:04:27;;;;;;;4.28;1.60;;;;;;;;;;5354843;26;20004;-83
2024/05/07 12:06:53;;;;;;;3.47;1.52;;;;;;;;;;5368375;26;19997;-81
2024/05/07 12:09:20;;;;;;;2.22;1.50;;;;;;;;;;5372115;26;20016;-81
2024/05/07 12:11:49;;;;;;;3.72;1.75;;;;;;;;;;5372900;26;19996;-83
2024/05/07 12:14:16;;;;;;;3.75;1.60;;;;;;;;;;5352780;26;20013;-86
2024/05/07 12:16:42;;;;;;;3.38;1.70;;;;;;;;;;5352271;26;20003;-85
2024/05/07 12:19:08;;;;;;;4.22;1.92;;;;;;;;;;5353771;26;20038;-84
2024/05/07 12:21:34;;;;;;;2.42;1.70;;;;;;;;;;5351267;26;19997;-84
2024/05/07 12:26:45;;;;;;;4.00;1.80;;;;;;;;;;5354502;26;20008;-85
2024/05/07 12:29:11;;;;;;;2.78;1.08;;;;;;;;;;5353579;26;20071;-85
2024/05/07 12:31:37;;;;;;;4.07;1.63;;;;;;;;;;5354001;26;20001;-85
2024/05/07 12:34:03;;;;;;;4.50;1.70;;;;;;;;;;5353025;26;20007;-83
2024/05/07 12:36:29;;;;;;;1.63;1.30;;;;;;;;;;5363248;26;19992;-85
2024/05/07 12:38:55;;;;;;;3.83;1.48;;;;;;;;;;5385211;26;20008;-82
2024/05/07 12:41:22;;;;;;;3.13;1.40;;;;;;;;;;5387023;26;20000;-85
2024/05/07 12:43:48;;;;;;;4.10;1.80;;;;;;;;;;5388496;26;19997;-84
2024/05/07 12:46:14;;;;;;;7.10;1.80;;;;;;;;;;5387789;26;19999;-84
2024/05/07 12:48:40;;;;;;;4.25;1.80;;;;;;;;;;5385642;26;20004;-84
2024/05/07 12:51:07;;;;;;;4.30;1.88;;;;;;;;;;5386595;26;20449;-86
2024/05/07 12:53:33;;;;;;;8.85;2.40;;;;;;;;;;5385516;26;20471;-82
2024/05/07 12:55:59;;;;;;;4.20;1.85;;;;;;;;;;5386183;26;20023;-86
2024/05/07 12:58:25;;;;;;;5.05;1.73;;;;;;;;;;5385993;26;19996;-84
2024/05/07 13:00:51;;;;;;;7.50;2.28;;;;;;;;;;5386939;26;20309;-86
2024/05/07 13:03:18;;;;;;;1.95;1.27;;;;;;;;;;5384788;26;20001;-85
2024/05/07 13:05:44;;;;;;;2.85;2.30;;;;;;;;;;5386142;26;20011;-82
2024/05/07 13:08:10;;;;;;;1.70;1.20;;;;;;;;;;5387975;26;20007;-84
2024/05/07 13:10:36;;;;;;;5.95;2.22;;;;;;;;;;5384345;26;20383;-85
2024/05/07 13:13:03;;;;;;;1.85;1.23;;;;;;;;;;5388262;26;20007;-83
2024/05/07 13:15:29;;;;;;;3.25;1.30;;;;;;;;;;5384832;26;20000;-83
2024/05/07 13:17:55;;;;;;;2.25;1.17;;;;;;;;;;5383996;26;20007;-82
2024/05/07 13:20:21;;;;;;;1.13;0.82;;;;;;;;;;5382540;26;20395;-83
2024/05/07 13:22:48;;;;;;;2.03;1.70;;;;;;;;;;5384314;26;20340;-83
2024/05/07 13:25:14;;;;;;;3.35;1.40;;;;;;;;;;5385266;26;20016;-82
2024/05/07 13:27:40;;;;;;;8.07;2.13;;;;;;;;;;5385837;26;20003;-83
2024/05/07 13:30:06;;;;;;;3.92;2.15;;;;;;;;;;5385228;26;20000;-85
2024/05/07 13:32:32;;;;;;;3.03;1.27;;;;;;;;;;5386173;26;20016;-85
2024/05/07 13:34:58;;;;;;;2.13;1.17;;;;;;;;;;5384331;26;20078;-85
2024/05/07 13:37:24;;;;;;;1.42;1.00;;;;;;;;;;5387164;26;19992;-84
2024/05/07 13:39:50;;;;;;;5.70;2.60;;;;;;;;;;5387830;26;19996;-85
2024/05/07 13:42:16;;;;;;;1.95;1.60;;;;;;;;;;5385124;26;20000;-83
2024/05/07 13:44:42;;;;;;;2.80;1.60;;;;;;;;;;5386474;26;20000;-84
2024/05/07 13:47:08;;;;;;;5.45;1.20;;;;;;;;;;5385939;26;20004;-84
2024/05/07 13:49:34;;;;;;;1.55;1.20;;;;;;;;;;5386640;26;20084;-85
2024/05/07 13:52:00;;;;;;;2.35;1.20;;;;;;;;;;5390007;26;20020;-86
2024/05/07 13:54:27;;;;;;;2.63;1.83;;;;;;;;;;5388576;26;20054;-85
2024/05/07 13:56:53;;;;;;;1.23;1.10;;;;;;;;;;5386876;26;20007;-82
2024/05/07 13:59:19;;;;;;;2.53;1.58;;;;;;;;;;5389351;26;20011;-84
2024/05/07 14:01:45;;;;;;;4.15;1.38;;;;;;;;;;5388019;26;19996;-82
2024/05/07 14:04:11;;;;;;;1.08;0.98;;;;;;;;;;5386285;26;20009;-82
2024/05/07 14:06:37;;;;;;;6.55;1.67;;;;;;;;;;5388636;26;20008;-84
2024/05/07 14:09:03;;;;;;;1.77;1.38;;;;;;;;;;5388616;26;20027;-84
2024/05/07 14:11:29;;;;;;;5.03;1.80;;;;;;;;;;5390054;26;19996;-85
2024/05/07 14:13:55;;;;;;;5.25;1.75;;;;;;;;;;5389549;26;20032;-88
2024/05/07 14:16:21;;;;;;;1.10;1.02;;;;;;;;;;5386428;26;20058;-84
2024/05/07 14:18:47;;;;;;;3.97;2.10;;;;;;;;;;5390237;26;20004;-85
2024/05/07 14:21:13;;;;;;;3.90;2.15;;;;;;;;;;5389074;26;20433;-85
2024/05/07 14:23:39;;;;;;;5.38;1.70;;;;;;;;;;5387925;26;19996;-83
2024/05/07 14:26:06;;;;;;;1.67;1.10;;;;;;;;;;5388823;26;20011;-85
2024/05/07 14:28:32;;;;;;;4.18;1.55;;;;;;;;;;5388506;26;20000;-85
2024/05/07 14:30:58;;;;;;;2.95;1.85;;;;;;;;;;5387927;26;19996;-84
2024/05/07 14:33:24;;;;;;;3.78;1.50;;;;;;;;;;5387627;26;20012;-82
2024/05/07 14:35:50;;;;;;;8.00;2.25;;;;;;;;;;5386805;26;19997;-85
2024/05/07 14:38:16;;;;;;;1.95;1.75;;;;;;;;;;5352580;26;19993;-83
2024/05/07 14:40:42;;;;;;;4.03;1.70;;;;;;;;;;5350504;26;20021;-82